Time;durP1;ratioP1;P1;durP2;ratioP2;P2;SDS_P1;SDS_P2;PMS_P1;PMS_P2;Temp;Humidity;BMP_temperature;BMP_pressure;BME280_temperature;BME280_humidity;BME280_pressure;Samples;Min_cycle;Max_cycle;Signal;HPM_P1;HPM_P2
2022/09/10 00:01:21;;;;;;;16.83;8.67;;;14.40;13.70;;;;;;4893233;29;20539;-45
2022/09/10 00:03:50;;;;;;;12.03;9.47;;;14.40;16.00;;;;;;4896404;29;20470;-45
2022/09/10 00:06:17;;;;;;;12.93;8.47;;;14.40;17.70;;;;;;4893871;29;20570;-45
2022/09/10 00:08:44;;;;;;;11.70;8.30;;;14.40;20.20;;;;;;4893715;29;20905;-45
2022/09/10 00:11:10;;;;;;;12.37;9.03;;;14.40;22.80;;;;;;4894716;29;20534;-45
2022/09/10 00:13:38;;;;;;;13.73;9.70;;;14.40;25.00;;;;;;4871246;29;20459;-45
2022/09/10 00:16:06;;;;;;;11.23;8.87;;;14.40;26.00;;;;;;4895128;29;20538;-45
2022/09/10 00:18:33;;;;;;;10.23;9.20;;;14.40;25.70;;;;;;4894847;29;21061;-45
2022/09/10 00:21:01;;;;;;;10.27;8.77;;;14.40;25.40;;;;;;4893480;29;20450;-45
2022/09/10 00:23:28;;;;;;;11.60;9.70;;;14.40;25.60;;;;;;4895665;29;20502;-45
2022/09/10 00:25:55;;;;;;;12.53;9.63;;;14.40;26.90;;;;;;4891841;29;20485;-45
2022/09/10 00:28:23;;;;;;;11.70;7.77;;;14.40;28.30;;;;;;4871026;29;20516;-45
2022/09/10 00:30:50;;;;;;;15.10;9.70;;;14.40;28.50;;;;;;4875678;29;20494;-45
2022/09/10 00:33:18;;;;;;;10.83;8.30;;;14.40;28.60;;;;;;4875434;29;20927;-45
2022/09/10 00:35:45;;;;;;;11.03;8.77;;;14.50;29.00;;;;;;4875799;29;20463;-45
2022/09/10 00:38:13;;;;;;;12.30;8.53;;;14.40;29.40;;;;;;4876184;29;20593;-45
2022/09/10 00:40:39;;;;;;;12.87;9.57;;;14.40;29.80;;;;;;4876030;29;20954;-45
2022/09/10 00:43:20;;;;;;;10.17;8.87;;;14.40;30.30;;;;;;4875087;29;20459;-45
2022/09/10 00:45:53;;;;;;;15.87;8.70;;;14.50;31.10;;;;;;4876557;29;20832;-45
2022/09/10 00:48:29;;;;;;;12.20;8.80;;;14.40;31.80;;;;;;4876820;29;20457;-45
2022/09/10 00:50:57;;;;;;;9.93;8.70;;;14.50;33.10;;;;;;4876121;29;20448;-45
2022/09/10 00:53:26;;;;;;;9.30;8.00;;;14.40;33.60;;;;;;4874698;29;20488;-45
2022/09/10 00:55:55;;;;;;;10.77;7.70;;;14.50;33.10;;;;;;4876220;29;20462;-45
2022/09/10 00:58:22;;;;;;;12.10;8.50;;;14.50;33.00;;;;;;4874809;29;20453;-45
2022/09/10 01:00:51;;;;;;;13.40;8.07;;;14.50;34.20;;;;;;4873878;29;20797;-45
2022/09/10 01:03:28;;;;;;;12.97;8.77;;;14.50;35.40;;;;;;4876188;29;20452;-45
2022/09/10 01:05:55;;;;;;;13.63;7.80;;;14.50;36.10;;;;;;4866658;29;20512;-45
2022/09/10 01:08:21;;;;;;;11.87;8.03;;;14.50;34.60;;;;;;4871904;29;20459;-45
2022/09/10 01:10:52;;;;;;;8.80;7.67;;;14.40;33.90;;;;;;4874226;29;20444;-45
2022/09/10 01:13:28;;;;;;;17.77;8.27;;;14.50;33.70;;;;;;4875010;29;20197;-45
2022/09/10 01:16:24;;;;;;;9.63;8.17;;;14.40;33.40;;;;;;4875782;29;21116;-45
2022/09/10 01:18:52;;;;;;;9.37;8.17;;;14.40;33.70;;;;;;4875352;29;20518;-45
2022/09/10 01:21:31;;;;;;;9.80;8.30;;;14.40;33.90;;;;;;4873996;29;20516;-45
2022/09/10 01:24:15;;;;;;;12.43;7.87;;;14.40;32.60;;;;;;4875193;29;20453;-45
2022/09/10 01:27:01;;;;;;;8.17;6.97;;;14.40;31.70;;;;;;4875045;29;20990;-49
2022/09/10 01:29:38;;;;;;;9.70;7.53;;;14.40;32.10;;;;;;4877026;29;20464;-45
2022/09/10 01:32:07;;;;;;;10.30;7.40;;;14.40;32.20;;;;;;4892262;29;20451;-45
2022/09/10 01:34:40;;;;;;;9.90;6.97;;;14.40;31.00;;;;;;4892641;29;20582;-46
2022/09/10 01:37:20;;;;;;;12.23;7.50;;;14.40;29.90;;;;;;4893874;29;20443;-45
2022/09/10 01:39:47;;;;;;;11.63;8.13;;;14.40;29.10;;;;;;4885579;29;20451;-45
2022/09/10 01:42:14;;;;;;;8.70;7.47;;;14.40;28.70;;;;;;4892641;29;20459;-45
2022/09/10 01:44:48;;;;;;;12.20;7.73;;;14.40;28.10;;;;;;4892968;29;20491;-46
2022/09/10 01:47:16;;;;;;;10.97;7.90;;;14.40;26.80;;;;;;4897410;29;20976;-45
2022/09/10 01:50:12;;;;;;;9.57;7.33;;;14.40;25.40;;;;;;4897235;29;20813;-45
2022/09/10 01:53:01;;;;;;;7.83;6.87;;;14.40;25.40;;;;;;4898195;29;20443;-45
2022/09/10 01:55:52;;;;;;;8.80;6.67;;;14.40;25.70;;;;;;4889215;29;20510;-45
2022/09/10 01:58:32;;;;;;;9.70;7.23;;;14.40;24.40;;;;;;4888437;29;20452;-45
2022/09/10 02:01:06;;;;;;;8.37;7.20;;;14.40;23.40;;;;;;4888295;29;20447;-45
2022/09/10 02:03:34;;;;;;;9.00;7.43;;;14.40;23.00;;;;;;4896648;29;20537;-45
2022/09/10 02:06:01;;;;;;;13.10;7.37;;;14.40;22.20;;;;;;4896598;29;20937;-50
2022/09/10 02:08:31;;;;;;;12.70;7.90;;;14.30;20.50;;;;;;4897953;29;20458;-45
2022/09/10 02:10:59;;;;;;;13.33;8.20;;;14.30;19.20;;;;;;4896437;29;20450;-45
2022/09/10 02:13:27;;;;;;;8.03;6.63;;;14.30;18.40;;;;;;4893939;29;20447;-45
2022/09/10 02:15:53;;;;;;;7.10;6.40;;;14.30;17.80;;;;;;4884276;29;20436;-45
2022/09/10 02:18:20;;;;;;;9.67;7.63;;;14.30;16.70;;;;;;4888417;29;20444;-46
2022/09/10 02:20:48;;;;;;;10.67;7.80;;;14.30;14.60;;;;;;4890975;29;20833;-45
2022/09/10 02:23:17;;;;;;;10.03;7.53;;;14.30;13.70;;;;;;4897883;29;20956;-45
2022/09/10 02:25:43;;;;;;;8.30;6.53;;;14.30;13.90;;;;;;4896203;29;20479;-45
2022/09/10 02:28:09;;;;;;;10.97;7.30;;;14.30;14.40;;;;;;4885293;29;20480;-45
2022/09/10 02:30:35;;;;;;;8.63;6.90;;;14.30;15.10;;;;;;4876614;29;20926;-50
2022/09/10 02:33:01;;;;;;;9.40;6.80;;;14.30;15.40;;;;;;4876809;29;20445;-45
2022/09/10 02:35:27;;;;;;;7.83;7.03;;;14.30;15.20;;;;;;4890271;29;20192;-45
2022/09/10 02:37:52;;;;;;;7.70;6.60;;;14.30;15.10;;;;;;4877835;29;20229;-45
2022/09/10 02:40:18;;;;;;;10.80;6.90;;;14.30;15.40;;;;;;4877260;29;20919;-45
2022/09/10 02:42:45;;;;;;;8.07;7.30;;;14.30;15.40;;;;;;4878144;29;20249;-45
2022/09/10 02:45:12;;;;;;;10.50;7.57;;;14.30;15.10;;;;;;4878684;29;20256;-45
2022/09/10 02:47:38;;;;;;;11.20;6.70;;;14.30;14.20;;;;;;4877468;29;20448;-45
2022/09/10 02:50:05;;;;;;;9.60;7.30;;;14.30;13.30;;;;;;4877402;29;20456;-45
2022/09/10 02:52:32;;;;;;;7.13;6.47;;;14.30;13.10;;;;;;4878592;29;20441;-45
2022/09/10 02:54:58;;;;;;;8.63;7.23;;;14.30;12.40;;;;;;4877522;29;20555;-45
2022/09/10 02:57:25;;;;;;;12.17;7.10;;;14.30;12.10;;;;;;4876583;29;20531;-45
2022/09/10 02:59:52;;;;;;;8.97;7.20;;;14.30;11.40;;;;;;4870415;29;20974;-46
2022/09/10 03:02:19;;;;;;;9.30;6.90;;;14.30;10.40;;;;;;4876429;29;20460;-45
2022/09/10 03:04:45;;;;;;;12.97;7.40;;;14.30;9.90;;;;;;4878913;29;20503;-45
2022/09/10 03:07:11;;;;;;;7.07;6.37;;;14.30;9.70;;;;;;4870799;29;20460;-45
2022/09/10 03:09:39;;;;;;;8.87;7.40;;;14.30;10.50;;;;;;4882050;29;20456;-45
2022/09/10 03:12:05;;;;;;;8.47;7.10;;;14.30;10.20;;;;;;4877546;29;20924;-45
2022/09/10 03:14:31;;;;;;;9.07;6.80;;;14.30;9.00;;;;;;4876858;29;20456;-45
2022/09/10 03:16:57;;;;;;;12.20;7.43;;;14.30;8.20;;;;;;4877072;29;21014;-45
2022/09/10 03:19:23;;;;;;;9.23;6.97;;;14.30;7.30;;;;;;4875625;29;20659;-45
2022/09/10 03:21:48;;;;;;;8.73;6.50;;;14.30;6.80;;;;;;4876068;29;20278;-45
2022/09/10 03:24:14;;;;;;;7.07;6.37;;;14.30;6.40;;;;;;4875176;29;20791;-45
2022/09/10 03:26:40;;;;;;;8.93;6.83;;;14.30;5.20;;;;;;4876571;29;20224;-45
2022/09/10 03:29:05;;;;;;;8.20;6.70;;;14.30;3.80;;;;;;4874257;29;20240;-45
2022/09/10 03:31:31;;;;;;;9.43;6.17;;;14.30;3.10;;;;;;4876250;29;20228;-45
2022/09/10 03:33:58;;;;;;;7.23;6.40;;;14.30;3.10;;;;;;4876067;29;20208;-45
2022/09/10 03:36:28;;;;;;;7.20;5.80;;;14.30;3.50;;;;;;4877915;29;20655;-45
2022/09/10 03:38:53;;;;;;;6.50;5.47;;;14.30;3.10;;;;;;4876980;29;20794;-45
2022/09/10 03:41:19;;;;;;;6.23;5.67;;;14.30;3.30;;;;;;4875145;29;20452;-45
2022/09/10 03:43:44;;;;;;;8.50;5.90;;;14.30;2.60;;;;;;4873245;29;20283;-45
2022/09/10 03:46:10;;;;;;;9.80;6.00;;;14.30;2.30;;;;;;4874975;29;20232;-45
2022/09/10 03:48:38;;;;;;;8.30;5.70;;;14.30;1.50;;;;;;4877726;29;20227;-45
2022/09/10 03:51:03;;;;;;;6.03;5.50;;;14.30;1.00;;;;;;4874908;29;20456;-45
2022/09/10 03:53:29;;;;;;;7.60;5.87;;;14.30;1.00;;;;;;4862074;29;20448;-45
2022/09/10 03:55:55;;;;;;;6.13;5.30;;;14.30;1.50;;;;;;4859596;29;20227;-45
2022/09/10 03:58:20;;;;;;;8.37;6.00;;;14.30;1.20;;;;;;4858570;29;20223;-45
2022/09/10 04:00:46;;;;;;;8.53;5.97;;;14.20;1.00;;;;;;4858490;29;20963;-45
2022/09/10 04:03:13;;;;;;;8.03;5.97;;;14.20;1.00;;;;;;4859775;29;20192;-45
2022/09/10 04:05:39;;;;;;;7.50;5.50;;;14.20;1.00;;;;;;4862169;29;20311;-45
2022/09/10 04:08:06;;;;;;;7.07;5.27;;;14.20;1.00;;;;;;4858860;29;20437;-45
2022/09/10 04:10:32;;;;;;;8.30;6.20;;;14.20;1.00;;;;;;4857310;29;20480;-45
2022/09/10 04:12:58;;;;;;;6.90;5.00;;;14.20;1.00;;;;;;4858815;29;21117;-45
2022/09/10 04:15:24;;;;;;;5.57;5.07;;;14.30;1.00;;;;;;4873080;29;20448;-45
2022/09/10 04:17:50;;;;;;;5.30;4.80;;;14.20;1.00;;;;;;4861207;29;20200;-45
2022/09/10 04:20:20;;;;;;;7.90;5.27;;;14.20;1.00;;;;;;4857291;29;20448;-45
2022/09/10 04:22:47;;;;;;;7.30;5.13;;;14.20;1.00;;;;;;4858232;29;20480;-45
2022/09/10 04:25:14;;;;;;;6.20;5.40;;;14.20;1.00;;;;;;4857560;29;20481;-45
2022/09/10 04:27:43;;;;;;;9.40;6.60;;;14.20;1.00;;;;;;4859240;29;20479;-45
2022/09/10 04:30:10;;;;;;;6.53;5.00;;;14.20;1.00;;;;;;4861482;29;20596;-45
2022/09/10 04:32:36;;;;;;;13.40;5.97;;;14.20;1.00;;;;;;4863485;29;20448;-45
2022/09/10 04:35:02;;;;;;;7.73;5.13;;;14.20;1.00;;;;;;4864370;29;20467;-45
2022/09/10 04:37:29;;;;;;;6.17;5.20;;;14.20;1.00;;;;;;4862165;29;21459;-45
2022/09/10 04:39:54;;;;;;;6.63;4.70;;;14.10;1.00;;;;;;4863858;29;20448;-46
2022/09/10 04:42:20;;;;;;;5.30;4.80;;;14.10;1.00;;;;;;4862437;29;20962;-45
2022/09/10 04:44:46;;;;;;;6.00;5.40;;;14.10;1.00;;;;;;4867856;29;20243;-45
2022/09/10 04:47:12;;;;;;;10.00;5.30;;;14.10;1.00;;;;;;4857536;29;20200;-45
2022/09/10 04:49:38;;;;;;;7.60;5.70;;;14.00;1.00;;;;;;4865950;29;20200;-45
